createdAt,value
2018-11-01T00:02:05.337Z,11.45
2018-11-01T00:04:34.036Z,11.40
2018-11-01T00:07:02.749Z,11.35
2018-11-01T00:09:31.549Z,11.32
2018-11-01T00:12:00.268Z,11.34
2018-11-01T00:14:28.972Z,11.35
2018-11-01T00:16:58.033Z,11.33
2018-11-01T00:19:26.736Z,11.29
2018-11-01T00:21:55.731Z,11.26
2018-11-01T00:24:24.435Z,11.22
2018-11-01T00:26:53.153Z,11.19
2018-11-01T00:29:22.074Z,11.15
2018-11-01T00:31:50.811Z,11.11
2018-11-01T00:34:19.662Z,11.05
2018-11-01T00:36:48.361Z,11.01
2018-11-01T00:39:17.076Z,11.00
2018-11-01T00:41:45.784Z,10.99
2018-11-01T00:44:17.443Z,10.97
2018-11-01T00:46:46.153Z,10.95
2018-11-01T00:49:14.944Z,10.94
2018-11-01T00:51:43.681Z,10.91
2018-11-01T00:54:12.604Z,10.88
2018-11-01T00:56:41.612Z,10.84
2018-11-01T00:59:10.394Z,10.82
2018-11-01T01:01:39.289Z,10.78
2018-11-01T01:04:08.146Z,10.74
2018-11-01T01:06:36.972Z,10.70
2018-11-01T01:09:08.884Z,10.68
2018-11-01T01:11:37.651Z,10.64
2018-11-01T01:14:06.544Z,10.64
2018-11-01T01:16:35.401Z,10.60
2018-11-01T01:19:05.444Z,10.59
2018-11-01T01:21:34.317Z,10.59
2018-11-01T01:24:03.051Z,10.59
2018-11-01T01:26:31.939Z,10.55
2018-11-01T01:29:00.950Z,10.53
2018-11-01T01:31:30.024Z,10.52
2018-11-01T01:33:58.731Z,10.52
2018-11-01T01:36:27.650Z,10.51
2018-11-01T01:38:56.352Z,10.51
2018-11-01T01:41:25.056Z,10.51
2018-11-01T01:43:53.983Z,10.48
2018-11-01T01:46:23.003Z,10.49
2018-11-01T01:48:51.701Z,10.47
2018-11-01T01:51:20.408Z,10.46
2018-11-01T01:53:49.132Z,10.45
2018-11-01T01:56:17.847Z,10.47
2018-11-01T01:58:46.564Z,10.48
2018-11-01T02:01:15.588Z,10.47
2018-11-01T02:03:44.297Z,10.49
2018-11-01T02:06:13.016Z,10.48
2018-11-01T02:08:41.757Z,10.49
2018-11-01T02:11:10.464Z,10.49
2018-11-01T02:13:39.205Z,10.49
2018-11-01T02:16:08.146Z,10.50
2018-11-01T02:18:36.862Z,10.50
2018-11-01T02:21:06.183Z,10.53
2018-11-01T02:23:34.872Z,10.52
2018-11-01T02:26:03.581Z,10.52
2018-11-01T02:28:32.770Z,10.51
2018-11-01T02:31:01.468Z,10.50
2018-11-01T02:33:30.313Z,10.48
2018-11-01T02:35:59.188Z,10.46
2018-11-01T02:38:28.178Z,10.48
2018-11-01T02:40:57.040Z,10.48
2018-11-01T02:43:25.759Z,10.51
2018-11-01T02:45:58.476Z,10.51
2018-11-01T02:48:27.361Z,10.51
2018-11-01T02:50:56.178Z,10.52
2018-11-01T02:53:24.912Z,10.50
2018-11-01T02:55:53.629Z,10.52
2018-11-01T02:58:22.385Z,10.54
2018-11-01T03:00:51.084Z,10.54
2018-11-01T03:03:19.811Z,10.54
2018-11-01T03:05:48.516Z,10.51
2018-11-01T03:08:17.376Z,10.48
2018-11-01T03:10:46.140Z,10.50
2018-11-01T03:13:14.868Z,10.51
2018-11-01T03:15:43.580Z,10.51
2018-11-01T03:18:12.477Z,10.54
2018-11-01T03:20:41.605Z,10.54
2018-11-01T03:23:10.316Z,10.51
2018-11-01T03:25:39.042Z,10.50
2018-11-01T03:28:07.740Z,10.52
2018-11-01T03:30:36.713Z,10.49
2018-11-01T03:33:05.661Z,10.48
2018-11-01T03:35:34.410Z,10.46
2018-11-01T03:38:03.368Z,10.42
2018-11-01T03:40:32.043Z,10.39
2018-11-01T03:43:00.754Z,10.37
2018-11-01T03:45:29.450Z,10.37
2018-11-01T03:47:58.175Z,10.35
2018-11-01T03:50:26.951Z,10.34
2018-11-01T03:52:55.657Z,10.29
2018-11-01T03:55:24.463Z,10.25
2018-11-01T03:57:53.184Z,10.23
2018-11-01T04:00:21.994Z,10.21
2018-11-01T04:02:51.096Z,10.18
2018-11-01T04:05:19.817Z,10.15
2018-11-01T04:07:48.791Z,10.14
2018-11-01T04:10:17.468Z,10.12
2018-11-01T04:12:46.180Z,10.10
2018-11-01T04:15:15.174Z,10.05
2018-11-01T04:17:44.074Z,10.02
2018-11-01T04:20:14.032Z,9.96
2018-11-01T04:22:43.128Z,9.94
2018-11-01T04:25:12.104Z,9.91
2018-11-01T04:27:40.826Z,9.85
2018-11-01T04:30:09.779Z,9.76
2018-11-01T04:32:38.569Z,9.72
2018-11-01T04:35:07.868Z,9.63
2018-11-01T04:37:36.583Z,9.61
2018-11-01T04:40:06.728Z,9.56
2018-11-01T04:42:35.600Z,9.51
2018-11-01T04:45:06.012Z,9.46
2018-11-01T04:47:34.758Z,9.39
2018-11-01T04:50:03.456Z,9.35
2018-11-01T04:52:32.170Z,9.32
2018-11-01T04:55:00.865Z,9.27
2018-11-01T04:57:29.583Z,9.23
2018-11-01T04:59:58.292Z,9.20
2018-11-01T05:02:26.981Z,9.14
2018-11-01T05:04:56.067Z,9.07
2018-11-01T05:07:24.780Z,8.98
2018-11-01T05:09:53.622Z,8.93
2018-11-01T05:12:22.564Z,8.93
2018-11-01T05:14:51.288Z,8.91
2018-11-01T05:17:20.133Z,8.89
2018-11-01T05:19:48.855Z,8.85
2018-11-01T05:22:17.648Z,8.81
2018-11-01T05:24:46.492Z,8.76
2018-11-01T05:27:15.190Z,8.77
2018-11-01T05:29:43.915Z,8.72
2018-11-01T05:32:12.611Z,8.69
2018-11-01T05:34:41.548Z,8.66
2018-11-01T05:37:10.268Z,8.66
2018-11-01T05:39:38.988Z,8.67
2018-11-01T05:42:07.755Z,8.72
2018-11-01T05:44:36.584Z,8.71
2018-11-01T05:47:05.416Z,8.71
2018-11-01T05:49:34.123Z,8.67
2018-11-01T05:52:02.829Z,8.67
2018-11-01T05:54:31.647Z,8.66
2018-11-01T05:57:00.432Z,8.63
2018-11-01T05:59:29.172Z,8.61
2018-11-01T06:02:00.280Z,8.60
2018-11-01T06:04:28.994Z,8.57
2018-11-01T06:06:57.689Z,8.56
2018-11-01T06:09:29.699Z,8.55
2018-11-01T06:11:58.402Z,8.53
2018-11-01T06:14:27.737Z,8.53
2018-11-01T06:16:57.279Z,8.53
2018-11-01T06:19:26.598Z,8.51
2018-11-01T06:21:55.298Z,8.47
2018-11-01T06:24:24.004Z,8.46
2018-11-01T06:26:52.698Z,8.43
2018-11-01T06:29:21.391Z,8.40
2018-11-01T06:31:50.197Z,8.42
2018-11-01T06:34:39.538Z,8.43
2018-11-01T06:37:08.461Z,8.44
2018-11-01T06:39:37.656Z,8.42
2018-11-01T06:42:06.427Z,8.39
2018-11-01T06:44:35.206Z,8.40
2018-11-01T06:47:04.816Z,8.41
2018-11-01T06:49:56.282Z,8.40
2018-11-01T06:52:25.022Z,8.37
2018-11-01T06:54:53.936Z,8.34
2018-11-01T06:57:22.651Z,8.35
2018-11-01T06:59:51.365Z,8.40
2018-11-01T07:02:20.391Z,8.40
2018-11-01T07:04:49.303Z,8.43
2018-11-01T07:07:18.181Z,8.43
2018-11-01T07:09:46.900Z,8.44
2018-11-01T07:12:15.613Z,8.44
2018-11-01T07:14:44.349Z,8.45
2018-11-01T07:17:13.256Z,8.46
2018-11-01T07:19:41.845Z,8.49
2018-11-01T07:22:10.596Z,8.49
2018-11-01T07:24:39.306Z,8.45
2018-11-01T07:27:08.004Z,8.47
2018-11-01T07:29:36.728Z,8.50
2018-11-01T07:32:06.391Z,8.52
2018-11-01T07:34:35.099Z,8.51
2018-11-01T07:37:05.343Z,8.53
2018-11-01T07:39:34.064Z,8.53
2018-11-01T07:42:02.784Z,8.53
2018-11-01T07:44:31.640Z,8.54
2018-11-01T07:47:00.513Z,8.58
2018-11-01T07:49:29.362Z,8.60
2018-11-01T07:51:58.070Z,8.64
2018-11-01T07:54:26.768Z,8.63
2018-11-01T07:56:55.485Z,8.64
2018-11-01T07:59:24.189Z,8.66
2018-11-01T08:01:53.057Z,8.67
2018-11-01T08:04:21.750Z,8.70
2018-11-01T08:06:50.456Z,8.73
2018-11-01T08:09:19.424Z,8.78
2018-11-01T08:11:48.314Z,8.84
2018-11-01T08:14:17.109Z,8.84
2018-11-01T08:16:45.817Z,8.94
2018-11-01T08:19:14.535Z,9.02
2018-11-01T08:21:43.298Z,9.10
2018-11-01T08:24:12.025Z,9.17
2018-11-01T08:26:41.008Z,9.26
2018-11-01T08:29:09.711Z,9.34
2018-11-01T08:31:38.428Z,9.41
2018-11-01T08:34:07.300Z,9.50
2018-11-01T08:36:35.957Z,9.59
2018-11-01T08:39:07.349Z,9.68
2018-11-01T08:41:36.016Z,9.77
2018-11-01T08:44:05.479Z,9.84
2018-11-01T08:46:34.217Z,9.93
2018-11-01T08:49:02.953Z,10.02
2018-11-01T08:51:31.667Z,10.10
2018-11-01T08:54:00.377Z,10.18
2018-11-01T08:56:29.372Z,10.28
2018-11-01T08:58:58.077Z,10.33
2018-11-01T09:01:26.792Z,10.41
2018-11-01T09:03:55.597Z,10.48
2018-11-01T09:06:24.247Z,10.56
2018-11-01T09:08:52.949Z,10.66
2018-11-01T09:11:21.766Z,10.76
2018-11-01T09:13:50.635Z,10.83
2018-11-01T09:16:19.384Z,10.93
2018-11-01T09:18:48.090Z,11.02
2018-11-01T09:21:16.842Z,11.10
2018-11-01T09:23:45.544Z,11.19
2018-11-01T09:26:14.363Z,11.26
2018-11-01T09:28:43.110Z,11.34
2018-11-01T09:31:11.820Z,11.43
2018-11-01T09:33:40.549Z,11.50
2018-11-01T09:36:09.264Z,11.58
2018-11-01T09:38:37.970Z,11.67
2018-11-01T09:41:06.847Z,11.71
2018-11-01T09:43:35.565Z,11.82
2018-11-01T09:46:05.352Z,11.91
2018-11-01T09:48:34.284Z,11.98
2018-11-01T09:51:03.360Z,12.07
2018-11-01T09:53:32.071Z,12.14
2018-11-01T09:56:01.194Z,12.22
2018-11-01T09:58:30.035Z,12.27
2018-11-01T10:00:58.780Z,12.34
2018-11-01T10:03:27.433Z,12.40
2018-11-01T10:05:56.167Z,12.47
2018-11-01T10:08:24.848Z,12.51
2018-11-01T10:10:53.596Z,12.60
2018-11-01T10:13:22.299Z,12.69
2018-11-01T10:15:51.312Z,12.74
2018-11-01T10:18:20.313Z,12.81
2018-11-01T10:20:48.580Z,12.86
2018-11-01T10:23:18.021Z,12.88
2018-11-01T10:25:47.047Z,12.92
2018-11-01T10:28:15.729Z,12.95
2018-11-01T10:30:44.432Z,13.01
2018-11-01T10:33:13.579Z,13.05
2018-11-01T10:35:42.302Z,13.06
2018-11-01T10:38:11.586Z,13.06
2018-11-01T10:40:40.309Z,13.07
2018-11-01T10:43:08.992Z,13.08
2018-11-01T10:45:37.715Z,13.10
2018-11-01T10:48:06.428Z,13.14
2018-11-01T10:50:35.120Z,13.16
2018-11-01T10:53:04.649Z,13.18
2018-11-01T10:55:33.367Z,13.23
2018-11-01T10:58:02.063Z,13.27
2018-11-01T11:00:36.196Z,13.36
2018-11-01T11:03:04.804Z,13.37
2018-11-01T11:05:33.519Z,13.41
2018-11-01T11:08:02.520Z,13.47
2018-11-01T11:10:31.205Z,13.49
2018-11-01T11:12:59.920Z,13.47
2018-11-01T11:15:28.632Z,13.50
2018-11-01T11:17:57.328Z,13.54
2018-11-01T11:20:26.282Z,13.55
2018-11-01T11:22:54.744Z,13.61
2018-11-01T11:25:23.449Z,13.63
2018-11-01T11:27:52.136Z,13.65
2018-11-01T11:30:21.155Z,13.68
2018-11-01T11:32:49.759Z,13.72
2018-11-01T11:35:18.500Z,13.77
2018-11-01T11:37:47.161Z,13.78
2018-11-01T11:40:15.965Z,13.83
2018-11-01T11:42:44.732Z,13.84
2018-11-01T11:45:13.680Z,13.77
2018-11-01T11:47:42.752Z,13.77
2018-11-01T11:50:12.539Z,13.80
2018-11-01T11:52:41.924Z,13.74
2018-11-01T11:55:11.056Z,13.78
2018-11-01T11:57:39.924Z,13.76
2018-11-01T12:00:10.627Z,13.73
2018-11-01T12:02:39.361Z,13.71
2018-11-01T12:05:08.317Z,13.67
2018-11-01T12:07:37.240Z,13.70
2018-11-01T12:10:06.715Z,13.72
2018-11-01T12:12:35.408Z,13.75
2018-11-01T12:15:04.316Z,13.73
2018-11-01T12:17:33.016Z,13.71
2018-11-01T12:20:01.844Z,13.77
2018-11-01T12:22:30.641Z,13.80
2018-11-01T12:24:59.561Z,13.77
2018-11-01T12:27:28.252Z,13.75
2018-11-01T12:29:57.136Z,13.76
2018-11-01T12:32:25.844Z,13.74
2018-11-01T12:34:54.560Z,13.74
2018-11-01T12:37:23.277Z,13.70
2018-11-01T12:39:51.987Z,13.69
2018-11-01T12:42:20.680Z,13.68
2018-11-01T12:44:53.652Z,13.70
2018-11-01T12:47:22.354Z,13.74
2018-11-01T12:49:51.160Z,13.79
2018-11-01T12:52:19.791Z,13.83
2018-11-01T12:54:48.509Z,13.81
2018-11-01T12:57:17.213Z,13.78
2018-11-01T12:59:45.921Z,13.80
2018-11-01T13:02:14.675Z,13.82
2018-11-01T13:04:43.312Z,13.82
2018-11-01T13:07:12.013Z,13.79
2018-11-01T13:09:40.747Z,13.75
2018-11-01T13:12:09.450Z,13.72
2018-11-01T13:14:38.161Z,13.69
2018-11-01T13:17:06.859Z,13.69
2018-11-01T13:19:35.560Z,13.70
2018-11-01T13:22:05.448Z,13.70
2018-11-01T13:24:34.153Z,13.71
2018-11-01T13:27:02.909Z,13.66
2018-11-01T13:29:31.860Z,13.60
2018-11-01T13:32:00.573Z,13.56
2018-11-01T13:34:29.292Z,13.54
2018-11-01T13:36:58.024Z,13.50
2018-11-01T13:42:18.527Z,13.55
2018-11-01T13:44:47.241Z,13.53
2018-11-01T13:47:16.058Z,13.54
2018-11-01T13:49:44.675Z,13.55
2018-11-01T13:52:13.372Z,13.56
2018-11-01T13:54:42.157Z,13.53
2018-11-01T13:57:10.781Z,13.45
2018-11-01T13:59:39.670Z,13.39
2018-11-01T14:02:08.467Z,13.36
2018-11-01T14:04:37.164Z,13.34
2018-11-01T14:07:06.276Z,13.32
2018-11-01T14:09:34.976Z,13.27
2018-11-01T14:12:03.684Z,13.21
2018-11-01T14:14:33.006Z,13.17
2018-11-01T14:17:02.069Z,13.16
2018-11-01T14:19:30.801Z,13.16
2018-11-01T14:21:59.496Z,13.14
2018-11-01T14:24:28.181Z,13.12
2018-11-01T14:26:56.984Z,13.06
2018-11-01T14:29:25.684Z,12.99
2018-11-01T14:31:54.397Z,12.97
2018-11-01T14:34:23.092Z,12.94
2018-11-01T14:36:51.820Z,12.94
2018-11-01T14:39:20.532Z,12.91
2018-11-01T14:41:49.216Z,12.83
2018-11-01T14:44:17.937Z,12.72
2018-11-01T14:46:46.629Z,12.67
2018-11-01T14:49:15.356Z,12.63
2018-11-01T14:51:44.115Z,12.57
2018-11-01T14:54:13.967Z,12.52
2018-11-01T14:56:42.696Z,12.47
2018-11-01T14:59:11.649Z,12.43
2018-11-01T15:01:38.922Z,12.38
2018-11-01T15:04:07.641Z,12.37
2018-11-01T15:06:36.434Z,12.34
2018-11-01T15:09:08.543Z,12.28
2018-11-01T15:11:37.261Z,12.26
2018-11-01T15:14:05.967Z,12.23
2018-11-01T15:16:34.681Z,12.16
2018-11-01T15:19:03.620Z,12.08
2018-11-01T15:21:32.376Z,12.08
2018-11-01T15:24:01.089Z,12.04
2018-11-01T15:26:29.796Z,12.00
2018-11-01T15:28:58.581Z,12.00
2018-11-01T15:31:27.577Z,12.00
2018-11-01T15:33:56.315Z,11.98
2018-11-01T15:36:24.985Z,11.94
2018-11-01T15:38:53.702Z,11.94
2018-11-01T15:41:22.431Z,11.92
2018-11-01T15:44:05.751Z,11.92
2018-11-01T15:46:34.880Z,11.92
2018-11-01T15:49:03.796Z,11.88
2018-11-01T15:51:32.539Z,11.84
2018-11-01T15:54:01.244Z,11.84
2018-11-01T15:56:29.956Z,11.85
2018-11-01T15:58:58.800Z,11.85
2018-11-01T16:01:27.524Z,11.81
2018-11-01T16:03:56.313Z,11.75
2018-11-01T16:06:24.933Z,11.70
2018-11-01T16:08:53.685Z,11.68
2018-11-01T16:11:22.519Z,11.66
2018-11-01T16:13:51.341Z,11.63
2018-11-01T16:16:20.076Z,11.56
2018-11-01T16:18:48.832Z,11.52
2018-11-01T16:21:17.512Z,11.49
2018-11-01T16:23:46.256Z,11.47
2018-11-01T16:26:14.979Z,11.45
2018-11-01T16:28:43.693Z,11.41
2018-11-01T16:31:12.403Z,11.39
2018-11-01T16:33:41.143Z,11.36
2018-11-01T16:36:09.844Z,11.36
2018-11-01T16:38:38.560Z,11.32
2018-11-01T16:41:07.260Z,11.32
2018-11-01T16:43:36.663Z,11.34
2018-11-01T16:46:05.593Z,11.32
2018-11-01T16:48:34.334Z,11.27
2018-11-01T16:51:03.129Z,11.27
2018-11-01T16:53:31.755Z,11.27
2018-11-01T16:56:00.497Z,11.27
2018-11-01T17:04:21.923Z,11.31
2018-11-01T17:06:50.908Z,11.35
2018-11-01T17:12:15.943Z,11.35
2018-11-01T17:14:44.737Z,11.36
2018-11-01T17:17:13.452Z,11.35
2018-11-01T17:19:42.416Z,11.34
2018-11-01T17:22:11.120Z,11.33
2018-11-01T17:24:39.827Z,11.35
2018-11-01T17:27:08.533Z,11.32
2018-11-01T17:29:37.259Z,11.32
2018-11-01T17:32:06.198Z,11.28
2018-11-01T17:34:34.896Z,11.26
2018-11-01T17:37:03.636Z,11.25
2018-11-01T17:39:32.348Z,11.26
2018-11-01T17:42:01.075Z,11.25
2018-11-01T17:44:30.012Z,11.21
2018-11-01T17:46:58.738Z,11.17
2018-11-01T17:49:27.572Z,11.14
2018-11-01T17:51:56.569Z,11.12
2018-11-01T17:54:25.543Z,11.06
2018-11-01T17:56:54.791Z,11.05
2018-11-01T17:59:23.853Z,11.05
2018-11-01T18:01:52.903Z,11.06
2018-11-01T18:04:21.557Z,11.06
2018-11-01T18:06:50.269Z,11.06
2018-11-01T18:09:19.193Z,11.06
2018-11-01T18:11:48.203Z,11.07
2018-11-01T18:14:17.211Z,11.09
2018-11-01T18:16:46.187Z,11.11
2018-11-01T18:19:15.037Z,11.10
2018-11-01T18:21:43.773Z,11.10
2018-11-01T18:24:12.856Z,11.06
2018-11-01T18:26:52.672Z,11.04
2018-11-01T18:29:21.898Z,11.03
2018-11-01T18:31:51.545Z,11.03
2018-11-01T18:34:21.443Z,11.05
2018-11-01T18:36:50.161Z,11.02
2018-11-01T18:39:19.184Z,11.06
2018-11-01T18:41:47.817Z,11.06
2018-11-01T18:44:16.779Z,11.03
2018-11-01T18:46:45.769Z,11.02
2018-11-01T18:49:15.683Z,11.04
2018-11-01T18:51:44.992Z,11.08
2018-11-01T18:54:13.869Z,11.12
2018-11-01T18:56:42.956Z,11.14
2018-11-01T18:59:12.082Z,11.18
2018-11-01T19:01:40.938Z,11.16
2018-11-01T19:04:09.932Z,11.13
2018-11-01T19:06:38.632Z,11.11
2018-11-01T19:09:08.857Z,11.08
2018-11-01T19:11:38.488Z,11.07
2018-11-01T19:14:07.564Z,11.08
2018-11-01T19:16:36.212Z,11.10
2018-11-01T19:19:05.369Z,11.12
2018-11-01T19:21:35.449Z,11.11
2018-11-01T19:29:13.644Z,11.04
2018-11-01T19:31:43.289Z,11.03
2018-11-01T19:34:12.452Z,10.99
2018-11-01T19:36:41.013Z,10.98
2018-11-01T19:39:10.945Z,10.98
2018-11-01T19:41:40.503Z,10.99
2018-11-01T19:44:09.491Z,10.98
2018-11-01T19:46:38.195Z,10.96
2018-11-01T19:49:06.904Z,10.95
2018-11-01T19:51:35.840Z,10.95
2018-11-01T19:54:05.266Z,10.99
2018-11-01T19:56:33.980Z,11.01
2018-11-01T19:59:03.639Z,11.03
2018-11-01T20:01:32.751Z,11.05
2018-11-01T20:04:01.772Z,11.07
2018-11-01T20:06:31.643Z,11.07
2018-11-01T20:09:00.482Z,11.06
2018-11-01T20:11:31.473Z,11.09
2018-11-01T20:14:00.212Z,11.10
2018-11-01T20:16:50.764Z,11.10
2018-11-01T20:19:19.686Z,11.10
2018-11-01T20:24:40.987Z,11.04
2018-11-01T20:27:21.720Z,11.07
2018-11-01T20:29:50.500Z,11.06
2018-11-01T20:32:19.212Z,11.06
2018-11-01T20:34:47.934Z,11.07
2018-11-01T20:37:16.820Z,11.07
2018-11-01T20:39:45.412Z,11.06
2018-11-01T20:42:14.356Z,11.04
2018-11-01T20:44:43.356Z,11.04
2018-11-01T20:47:12.068Z,11.07
2018-11-01T20:49:41.048Z,11.05
2018-11-01T20:52:09.750Z,11.04
2018-11-01T20:54:38.743Z,11.06
2018-11-01T20:57:07.614Z,11.08
2018-11-01T20:59:36.179Z,11.10
2018-11-01T21:02:04.887Z,11.12
2018-11-01T21:04:33.609Z,11.12
2018-11-01T21:07:02.749Z,11.13
2018-11-01T21:09:32.693Z,11.09
2018-11-01T21:12:01.483Z,11.08
2018-11-01T21:14:30.086Z,11.13
2018-11-01T21:16:59.175Z,11.12
2018-11-01T21:19:28.020Z,11.11
2018-11-01T21:21:56.734Z,11.10
2018-11-01T21:24:25.425Z,11.08
2018-11-01T21:26:54.380Z,11.09
2018-11-01T21:29:23.215Z,11.07
2018-11-01T21:31:51.867Z,11.06
2018-11-01T21:34:20.582Z,11.11
2018-11-01T21:36:50.355Z,11.06
2018-11-01T21:39:19.348Z,11.07
2018-11-01T21:41:48.334Z,11.08
2018-11-01T21:44:17.040Z,11.06
2018-11-01T21:46:45.766Z,11.06
2018-11-01T21:49:14.695Z,11.08
2018-11-01T21:51:43.426Z,11.08
2018-11-01T21:54:12.287Z,11.11
2018-11-01T21:56:41.027Z,11.09
2018-11-01T21:59:09.744Z,11.07
2018-11-01T22:01:38.736Z,11.04
2018-11-01T22:04:07.726Z,11.05
2018-11-01T22:06:36.404Z,11.02
2018-11-01T22:09:06.793Z,10.99
2018-11-01T22:11:35.545Z,10.99
2018-11-01T22:14:05.266Z,10.95
2018-11-01T22:16:34.009Z,10.99
2018-11-01T22:19:02.812Z,10.98
2018-11-01T22:21:31.546Z,10.95
2018-11-01T22:24:00.236Z,10.95
2018-11-01T22:26:29.267Z,10.95
2018-11-01T22:28:58.258Z,10.98
2018-11-01T22:31:26.968Z,10.97
2018-11-01T22:33:55.676Z,10.97
2018-11-01T22:36:24.623Z,11.01
2018-11-01T22:38:53.407Z,11.01
2018-11-01T22:41:22.307Z,11.02
2018-11-01T22:43:51.022Z,11.01
2018-11-01T22:46:19.747Z,11.04
2018-11-01T22:48:48.464Z,11.02
2018-11-01T22:51:17.185Z,11.03
2018-11-01T22:53:45.947Z,11.02
2018-11-01T22:56:15.943Z,11.09
2018-11-01T22:58:44.652Z,11.12
2018-11-01T23:01:13.388Z,11.13
2018-11-01T23:03:42.121Z,11.17
2018-11-01T23:06:11.135Z,11.19
2018-11-01T23:08:40.133Z,11.24
2018-11-01T23:11:09.115Z,11.25
2018-11-01T23:13:37.829Z,11.24
2018-11-01T23:16:07.088Z,11.25
2018-11-01T23:18:36.096Z,11.30
2018-11-01T23:21:05.608Z,11.32
2018-11-01T23:23:34.436Z,11.33
2018-11-01T23:26:03.290Z,11.38
2018-11-01T23:28:32.002Z,11.40
2018-11-01T23:31:00.769Z,11.35
2018-11-01T23:33:29.464Z,11.39
2018-11-01T23:36:03.525Z,11.37
2018-11-01T23:38:37.696Z,11.40
2018-11-01T23:41:11.824Z,11.42
2018-11-01T23:43:46.120Z,11.44
2018-11-01T23:46:20.230Z,11.45
2018-11-01T23:48:53.568Z,11.45
2018-11-01T23:51:22.281Z,11.46
2018-11-01T23:53:52.246Z,11.49
2018-11-01T23:56:21.095Z,11.47
2018-11-01T23:58:49.829Z,11.46
